Time;durP1;ratioP1;P1;durP2;ratioP2;P2;SDS_P1;SDS_P2;PMS_P1;PMS_P2;Temp;Humidity;BMP_temperature;BMP_pressure;BME280_temperature;BME280_humidity;BME280_pressure;Samples;Min_cycle;Max_cycle;Signal;HPM_P1;HPM_P2
2022/02/26 00:00:40;;;;;;;6.70;3.25;;;205.20;1868.80;;;;;;5050669;28;20036;-67
2022/02/26 00:03:06;;;;;;;8.68;3.00;;;205.10;1920.00;;;;;;5050239;28;20128;-58
2022/02/26 00:05:32;;;;;;;4.72;3.05;;;204.90;1920.00;;;;;;5069772;28;20111;-59
2022/02/26 00:07:58;;;;;;;5.50;3.33;;;;;;;;;;5070195;28;20035;-65
2022/02/26 00:10:24;;;;;;;7.50;3.00;;;204.80;1996.80;;;;;;5070560;28;20056;-65
2022/02/26 00:12:53;;;;;;;6.35;2.78;;;179.90;2048.00;;;;;;5070487;28;20468;-58
2022/02/26 00:15:22;;;;;;;5.88;3.72;;;179.90;2073.60;;;;;;5069845;28;20032;-62
2022/02/26 00:17:48;;;;;;;8.45;3.42;;;179.90;2073.60;;;;;;5058440;28;20017;-65
2022/02/26 00:20:14;;;;;;;5.38;3.05;;;179.80;2124.80;;;;;;5059789;28;20111;-65
2022/02/26 00:22:41;;;;;;;6.63;2.95;;;179.60;2150.40;;;;;;5059082;28;20021;-63
2022/02/26 00:25:07;;;;;;;5.70;3.05;;;179.70;2176.00;;;;;;5057611;28;20032;-60
2022/02/26 00:27:33;;;;;;;5.93;3.58;;;179.70;2227.20;;;;;;5059246;28;20020;-64
2022/02/26 00:29:59;;;;;;;16.90;8.68;;;179.60;2252.80;;;;;;5058735;28;20041;-64
2022/02/26 00:32:25;;;;;;;4.45;2.80;;;179.60;2252.80;;;;;;5059652;28;20051;-63
2022/02/26 00:34:51;;;;;;;5.95;4.15;;;179.70;2252.80;;;;;;5058017;28;20033;-65
2022/02/26 00:37:17;;;;;;;4.30;2.85;;;179.60;2252.80;;;;;;5059881;28;20020;-64
2022/02/26 00:39:42;;;;;;;4.63;2.83;;;179.50;2252.80;;;;;;5058037;28;20033;-63
2022/02/26 00:42:08;;;;;;;5.28;3.28;;;179.70;2252.80;;;;;;5058524;28;20108;-62
2022/02/26 00:44:35;;;;;;;6.40;5.07;;;179.50;2252.80;;;;;;5060106;28;20039;-64
2022/02/26 00:47:01;;;;;;;4.72;3.03;;;179.40;2252.80;;;;;;5057515;28;20080;-62
2022/02/26 00:52:12;;;;;;;6.30;3.70;;;;;;;;;;5059189;28;20027;-63
2022/02/26 00:54:38;;;;;;;5.60;3.30;;;;;;;;;;5056326;28;20037;-61
2022/02/26 00:57:04;;;;;;;8.73;2.97;;;;;;;;;;5059007;28;20036;-65
2022/02/26 00:59:30;;;;;;;7.82;3.38;;;;;;;;;;5056908;28;20036;-63
2022/02/26 01:01:56;;;;;;;6.75;2.92;;;179.20;2252.80;;;;;;5056928;28;20115;-62
2022/02/26 01:04:22;;;;;;;4.80;3.17;;;154.50;2252.80;;;;;;5059620;28;20105;-65
2022/02/26 01:06:48;;;;;;;8.60;4.45;;;179.30;2252.80;;;;;;5057764;28;20533;-59
2022/02/26 01:09:14;;;;;;;5.95;3.28;;;179.20;2252.80;;;;;;5059597;28;20032;-59
2022/02/26 01:11:40;;;;;;;3.90;3.15;;;;;;;;;;5057685;28;20021;-66
2022/02/26 01:14:06;;;;;;;5.82;3.10;;;;;;;;;;5058115;28;20025;-59
2022/02/26 01:16:33;;;;;;;5.80;3.22;;;;;;;;;;5059358;28;20040;-64
2022/02/26 01:18:59;;;;;;;5.00;3.05;;;;;;;;;;5061363;28;20345;-58
2022/02/26 01:21:25;;;;;;;5.57;3.13;;;;;;;;;;5062454;28;20012;-62
2022/02/26 01:23:51;;;;;;;4.93;2.88;;;;;;;;;;5062703;28;20030;-65
2022/02/26 01:26:17;;;;;;;5.88;3.63;;;;;;;;;;5061200;28;20063;-62
2022/02/26 01:28:43;;;;;;;11.73;3.05;;;;;;;;;;5061796;28;20040;-65
2022/02/26 01:31:10;;;;;;;5.43;2.90;;;;;;;;;;5062532;28;20467;-59
2022/02/26 01:33:36;;;;;;;7.13;4.20;;;;;;;;;;5060899;28;20025;-66
2022/02/26 01:36:03;;;;;;;6.25;3.55;;;;;;;;;;5062317;28;20020;-61
2022/02/26 01:38:29;;;;;;;5.13;3.13;;;;;;;;;;5062261;28;20075;-64
2022/02/26 01:40:55;;;;;;;5.70;2.85;;;;;;;;;;5061261;28;20479;-64
2022/02/26 01:43:21;;;;;;;5.05;3.25;;;;;;;;;;5063076;28;20059;-66
2022/02/26 01:45:47;;;;;;;8.25;4.63;;;;;;;;;;5063182;28;20383;-64
2022/02/26 01:48:13;;;;;;;6.90;3.10;;;;;;;;;;5061477;28;20066;-59
2022/02/26 01:50:39;;;;;;;7.80;5.18;;;;;;;;;;5063125;28;20028;-59
2022/02/26 01:53:07;;;;;;;6.88;3.33;;;;;;;;;;5062605;28;20060;-65
2022/02/26 01:55:33;;;;;;;6.97;3.85;;;;;;;;;;5069164;28;20166;-60
2022/02/26 01:57:59;;;;;;;5.43;3.75;;;;;;;;;;5071512;28;20475;-61
2022/02/26 02:00:25;;;;;;;5.00;2.97;;;;;;;;;;5072126;28;20029;-60
2022/02/26 02:02:54;;;;;;;6.13;3.15;;;;;;;;;;5071898;28;20028;-66
2022/02/26 02:05:20;;;;;;;5.22;3.38;;;;;;;;;;5071504;28;20029;-63
2022/02/26 02:07:46;;;;;;;6.13;3.58;;;;;;;;;;5071822;28;20028;-65
2022/02/26 02:10:13;;;;;;;6.63;3.30;;;;;;;;;;5071470;28;20043;-63
2022/02/26 02:12:41;;;;;;;5.18;2.80;;;;;;;;;;5071717;28;20031;-64
2022/02/26 02:15:07;;;;;;;8.27;4.05;;;;;;;;;;5071457;28;20142;-64
2022/02/26 02:17:33;;;;;;;5.82;3.80;;;;;;;;;;5071531;28;20031;-59
2022/02/26 02:19:59;;;;;;;6.85;3.55;;;;;;;;;;5071276;28;20040;-63
2022/02/26 02:22:25;;;;;;;6.97;3.20;;;;;;;;;;5071344;28;20079;-62
2022/02/26 02:24:51;;;;;;;5.38;3.30;;;;;;;;;;5071483;28;20028;-60
2022/02/26 02:27:18;;;;;;;4.85;3.33;;;;;;;;;;5070977;28;20079;-63
2022/02/26 02:29:45;;;;;;;5.70;3.50;;;;;;;;;;5071061;28;20044;-64
2022/02/26 02:32:11;;;;;;;6.25;3.03;;;;;;;;;;5071112;28;20538;-60
2022/02/26 02:34:37;;;;;;;4.10;2.83;;;;;;;;;;5071014;28;20115;-62
2022/02/26 02:37:03;;;;;;;5.68;3.00;;;;;;;;;;5071236;28;20433;-61
2022/02/26 02:39:29;;;;;;;4.90;2.90;;;;;;;;;;5071076;28;20086;-59
2022/02/26 02:41:55;;;;;;;8.32;3.42;;;;;;;;;;5070976;28;20060;-60
2022/02/26 02:44:21;;;;;;;6.47;3.40;;;;;;;;;;5070822;28;20033;-59
2022/02/26 02:46:47;;;;;;;5.93;2.72;;;;;;;;;;5071111;28;20112;-59
2022/02/26 02:49:13;;;;;;;4.75;2.70;;;;;;;;;;5070887;28;20048;-60
2022/02/26 02:51:39;;;;;;;4.25;2.80;;;;;;;;;;5070569;28;20382;-60
2022/02/26 02:54:06;;;;;;;4.05;2.78;;;;;;;;;;5071047;28;20362;-63
2022/02/26 02:56:32;;;;;;;7.30;4.60;;;;;;;;;;5070630;28;20031;-65
2022/02/26 02:58:58;;;;;;;3.60;2.50;;;;;;;;;;5070724;28;20036;-62
2022/02/26 03:01:24;;;;;;;5.85;3.50;;;;;;;;;;5070776;28;20036;-62
2022/02/26 03:03:50;;;;;;;6.05;4.32;;;;;;;;;;5070503;28;20036;-61
2022/02/26 03:06:16;;;;;;;4.97;3.00;;;;;;;;;;5071001;28;20417;-60
2022/02/26 03:08:42;;;;;;;9.88;3.35;;;;;;;;;;5070445;28;20032;-59
2022/02/26 03:11:09;;;;;;;4.60;3.20;;;;;;;;;;5070147;28;20119;-60
2022/02/26 03:13:37;;;;;;;3.78;2.92;;;;;;;;;;5070758;28;20032;-63
2022/02/26 03:16:03;;;;;;;6.95;3.30;;;;;;;;;;5070737;28;20094;-59
2022/02/26 03:18:29;;;;;;;5.53;2.90;;;;;;;;;;5070158;28;20113;-62
2022/02/26 03:20:55;;;;;;;3.58;2.40;;;;;;;;;;5070292;28;20115;-59
2022/02/26 03:23:21;;;;;;;4.90;2.78;;;;;;;;;;5070157;28;20029;-62
2022/02/26 03:25:47;;;;;;;4.53;2.40;;;;;;;;;;5069977;28;20037;-64
2022/02/26 03:28:13;;;;;;;4.55;2.53;;;;;;;;;;5069873;28;20053;-62
2022/02/26 03:30:40;;;;;;;4.82;2.53;;;;;;;;;;5069975;28;20060;-63
2022/02/26 03:33:07;;;;;;;4.43;2.50;;;;;;;;;;5070104;28;20028;-60
2022/02/26 03:35:33;;;;;;;4.20;2.60;;;;;;;;;;5070049;28;20029;-63
2022/02/26 03:37:59;;;;;;;5.15;2.60;;;;;;;;;;5070098;28;20421;-63
2022/02/26 03:40:26;;;;;;;4.40;2.75;;;;;;;;;;5069331;28;20020;-61
2022/02/26 03:42:52;;;;;;;4.47;2.65;;;;;;;;;;5069791;28;20064;-60
2022/02/26 03:45:18;;;;;;;7.68;3.40;;;;;;;;;;5069813;28;20100;-59
2022/02/26 03:47:44;;;;;;;5.90;3.28;;;;;;;;;;5070115;28;20025;-60
2022/02/26 03:50:11;;;;;;;5.40;2.58;;;;;;;;;;5069683;28;20455;-64
2022/02/26 03:52:37;;;;;;;7.22;2.90;;;;;;;;;;5069560;28;20387;-63
2022/02/26 03:55:04;;;;;;;5.10;2.85;;;;;;;;;;5069515;28;20040;-61
2022/02/26 03:57:30;;;;;;;4.68;2.47;;;;;;;;;;5069426;28;20032;-63
2022/02/26 03:59:57;;;;;;;4.88;2.75;;;;;;;;;;5069353;28;20039;-62
2022/02/26 04:02:23;;;;;;;6.05;2.70;;;;;;;;;;5069713;28;20024;-63
2022/02/26 04:04:49;;;;;;;67.35;53.13;;;;;;;;;;5069537;28;20032;-60
2022/02/26 04:07:15;;;;;;;5.68;3.65;;;;;;;;;;5069783;28;20039;-60
2022/02/26 04:09:41;;;;;;;4.70;2.30;;;;;;;;;;5069799;28;20494;-59
2022/02/26 04:12:08;;;;;;;6.57;3.30;;;;;;;;;;5069583;28;20020;-59
2022/02/26 04:14:34;;;;;;;14.73;13.52;;;;;;;;;;5069454;28;20098;-61
2022/02/26 04:17:00;;;;;;;7.75;3.97;;;;;;;;;;5069205;28;20028;-60
2022/02/26 04:19:26;;;;;;;5.38;4.07;;;;;;;;;;5069392;28;20039;-60
2022/02/26 04:21:52;;;;;;;5.88;4.05;;;;;;;;;;5069753;28;20063;-59
2022/02/26 04:24:18;;;;;;;5.70;3.80;;;;;;;;;;5069566;28;20390;-60
2022/02/26 04:26:44;;;;;;;5.78;4.50;;;;;;;;;;5069424;28;20020;-61
2022/02/26 04:29:11;;;;;;;12.32;8.18;;;;;;;;;;5069026;28;20059;-60
2022/02/26 04:31:37;;;;;;;8.93;7.72;;;;;;;;;;5068956;28;20025;-60
2022/02/26 04:34:03;;;;;;;6.43;4.43;;;;;;;;;;5069180;28;20033;-60
2022/02/26 04:36:30;;;;;;;7.95;7.13;;;;;;;;;;5069297;28;20074;-60
2022/02/26 04:38:56;;;;;;;7.82;6.13;;;;;;;;;;5069519;28;20037;-59
2022/02/26 04:41:22;;;;;;;6.15;3.72;;;;;;;;;;5069398;28;20033;-60
2022/02/26 04:43:48;;;;;;;4.50;2.58;;;;;;;;;;5069065;28;20029;-60
2022/02/26 04:46:14;;;;;;;7.47;4.15;;;;;;;;;;5069207;28;20119;-59
2022/02/26 04:48:40;;;;;;;6.03;3.17;;;;;;;;;;5068880;28;20036;-60
2022/02/26 04:51:08;;;;;;;6.20;3.88;;;;;;;;;;5069779;28;20052;-60
2022/02/26 04:53:35;;;;;;;5.88;4.00;;;;;;;;;;5073230;28;20035;-60
2022/02/26 04:56:01;;;;;;;9.05;6.55;;;;;;;;;;5072785;28;20073;-60
2022/02/26 04:58:28;;;;;;;8.07;4.60;;;;;;;;;;5072728;28;20032;-64
2022/02/26 05:00:54;;;;;;;8.23;6.60;;;;;;;;;;5066139;28;20033;-65
2022/02/26 05:03:20;;;;;;;5.13;4.03;;;;;;;;;;5051768;28;20032;-64
2022/02/26 05:05:46;;;;;;;7.18;6.47;;;;;;;;;;5052685;28;20037;-60
2022/02/26 05:08:12;;;;;;;5.75;3.97;;;;;;;;;;5052790;28;20025;-61
2022/02/26 05:10:38;;;;;;;6.90;4.28;;;;;;;;;;5052477;28;20040;-65
2022/02/26 05:13:04;;;;;;;6.00;3.55;;;;;;;;;;5052927;28;20360;-59
2022/02/26 05:15:30;;;;;;;8.02;6.93;;;;;;;;;;5052475;28;20021;-62
2022/02/26 05:17:56;;;;;;;11.05;8.55;;;;;;;;;;5052532;28;20055;-61
2022/02/26 05:20:22;;;;;;;97.30;77.03;;;;;;;;;;5052587;28;20029;-62
2022/02/26 05:22:49;;;;;;;6.38;4.28;;;;;;;;;;5052524;28;20029;-60
2022/02/26 05:25:15;;;;;;;5.13;3.80;;;;;;;;;;5052767;28;20022;-62
2022/02/26 05:27:42;;;;;;;7.13;4.13;;;;;;;;;;5051820;28;20033;-65
2022/02/26 05:30:11;;;;;;;10.00;4.40;;;;;;;;;;5052136;28;20037;-60
2022/02/26 05:32:37;;;;;;;6.38;4.45;;;;;;;;;;5052104;28;20103;-60
2022/02/26 05:35:03;;;;;;;8.52;4.60;;;;;;;;;;5052438;28;20025;-60
2022/02/26 05:37:29;;;;;;;8.18;4.10;;;;;;;;;;5052024;28;20029;-59
2022/02/26 05:39:56;;;;;;;9.52;4.32;;;;;;;;;;5052286;28;20379;-63
2022/02/26 05:42:22;;;;;;;7.80;5.18;;;;;;;;;;5052152;28;20021;-61
2022/02/26 05:44:48;;;;;;;8.48;5.20;;;;;;;;;;5052169;28;20038;-60
2022/02/26 05:47:14;;;;;;;7.70;4.43;;;;;;;;;;5052229;28;20100;-67
2022/02/26 05:49:40;;;;;;;7.85;4.60;;;;;;;;;;5051743;28;20486;-63
2022/02/26 05:52:06;;;;;;;7.63;4.80;;;;;;;;;;5052139;28;20021;-62
2022/02/26 05:54:32;;;;;;;8.98;5.53;;;;;;;;;;5052100;28;20052;-61
2022/02/26 05:56:58;;;;;;;9.30;5.93;;;;;;;;;;5051492;28;20033;-67
2022/02/26 05:59:24;;;;;;;13.68;10.73;;;;;;;;;;5051963;28;20128;-59
2022/02/26 06:01:50;;;;;;;8.63;5.78;;;;;;;;;;5050702;28;20620;-65
2022/02/26 06:04:17;;;;;;;10.07;5.63;;;;;;;;;;5050797;28;20468;-59
2022/02/26 06:06:43;;;;;;;8.20;5.88;;;;;;;;;;5051699;28;20379;-62
2022/02/26 06:09:09;;;;;;;9.25;5.05;;;;;;;;;;5051557;28;20049;-62
2022/02/26 06:11:35;;;;;;;8.32;4.45;;;;;;;;;;5051614;28;20120;-61
2022/02/26 06:14:01;;;;;;;7.88;4.03;;;;;;;;;;5051364;28;20442;-66
2022/02/26 06:16:27;;;;;;;8.18;3.67;;;;;;;;;;5051393;28;20051;-61
2022/02/26 06:18:53;;;;;;;8.00;4.10;;;;;;;;;;5051475;28;20033;-61
2022/02/26 06:21:19;;;;;;;6.78;4.70;;;;;;;;;;5051656;28;20032;-59
2022/02/26 06:23:45;;;;;;;12.18;5.05;;;;;;;;;;5051649;28;20112;-63
2022/02/26 06:26:12;;;;;;;7.63;4.72;;;;;;;;;;5051114;28;20037;-64
2022/02/26 06:28:38;;;;;;;11.93;7.60;;;;;;;;;;5050938;28;20049;-63
2022/02/26 06:31:04;;;;;;;23.38;16.23;;;;;;;;;;5050320;28;20049;-67
2022/02/26 06:33:30;;;;;;;21.02;18.60;;;;;;;;;;5051093;28;20025;-62
2022/02/26 06:35:56;;;;;;;9.50;7.15;;;;;;;;;;5051141;28;20037;-66
2022/02/26 06:38:22;;;;;;;8.15;7.07;;;;;;;;;;5051117;28;20061;-65
2022/02/26 06:40:48;;;;;;;11.27;8.05;;;;;;;;;;5050987;28;20073;-66
2022/02/26 06:43:14;;;;;;;14.75;12.32;;;;;;;;;;5051131;28;20028;-63
2022/02/26 06:45:40;;;;;;;10.30;9.10;;;;;;;;;;5050850;28;20025;-64
2022/02/26 06:48:07;;;;;;;11.68;10.48;;;;;;;;;;5050648;28;20044;-59
2022/02/26 06:50:33;;;;;;;10.70;9.60;;;;;;;;;;5050829;28;20124;-62
2022/02/26 06:52:59;;;;;;;10.43;7.38;;;;;;;;;;5050783;28;20040;-60
2022/02/26 06:55:25;;;;;;;13.93;10.48;;;;;;;;;;5050655;28;20479;-66
2022/02/26 06:57:51;;;;;;;13.50;11.98;;;;;;;;;;5050620;28;20033;-63
2022/02/26 07:00:18;;;;;;;14.48;11.30;;;;;;;;;;5050628;28;20121;-63
2022/02/26 07:02:44;;;;;;;11.15;9.73;;;;;;;;;;5050876;28;20029;-61
2022/02/26 07:05:10;;;;;;;12.02;9.82;;;;;;;;;;5050351;28;20029;-63
2022/02/26 07:07:36;;;;;;;9.88;7.93;;;;;;;;;;5050469;28;20036;-61
2022/02/26 07:10:03;;;;;;;10.60;6.93;;;;;;;;;;5050760;28;20047;-60
2022/02/26 07:12:29;;;;;;;11.00;7.05;;;;;;;;;;5050336;28;20033;-65
2022/02/26 07:14:55;;;;;;;10.95;7.15;;;;;;;;;;5050395;28;20029;-61
2022/02/26 07:17:21;;;;;;;9.10;6.70;;;;;;;;;;5050566;28;20028;-65
2022/02/26 07:19:47;;;;;;;8.23;5.88;;;;;;;;;;5050131;28;20422;-62
2022/02/26 07:22:13;;;;;;;10.27;6.20;;;;;;;;;;5050544;28;20021;-64
2022/02/26 07:24:40;;;;;;;8.45;6.35;;;;;;;;;;5050002;28;20025;-63
2022/02/26 07:27:06;;;;;;;8.27;6.30;;;;;;;;;;5050105;28;20032;-62
2022/02/26 07:29:32;;;;;;;10.63;7.15;;;;;;;;;;5049981;28;20049;-66
2022/02/26 07:31:58;;;;;;;12.50;7.78;;;;;;;;;;5049959;28;20021;-66
2022/02/26 07:34:24;;;;;;;9.13;6.70;;;;;;;;;;5050133;28;20037;-66
2022/02/26 07:36:50;;;;;;;9.68;7.43;;;;;;;;;;5049840;28;20028;-67
2022/02/26 07:39:16;;;;;;;10.18;6.32;;;;;;;;;;5050158;28;20044;-63
2022/02/26 07:41:42;;;;;;;8.10;6.32;;;;;;;;;;5059317;28;20367;-65
2022/02/26 07:44:08;;;;;;;10.00;6.43;;;;;;;;;;5060269;28;20020;-64
2022/02/26 07:46:34;;;;;;;8.18;5.97;;;;;;;;;;5064541;28;20024;-64
2022/02/26 07:49:00;;;;;;;10.68;6.43;;;;;;;;;;5070137;28;20119;-64
2022/02/26 07:51:26;;;;;;;19.40;13.45;;;;;;;;;;5070569;28;20024;-69
2022/02/26 07:53:52;;;;;;;12.55;8.88;;;;;;;;;;5070704;28;20099;-64
2022/02/26 07:56:19;;;;;;;19.30;12.98;;;;;;;;;;5070390;28;20116;-64
2022/02/26 07:58:45;;;;;;;10.65;7.05;;;;;;;;;;5060466;28;20100;-62
2022/02/26 08:01:11;;;;;;;11.43;6.88;;;;;;;;;;5060195;28;20483;-63
2022/02/26 08:03:37;;;;;;;57.50;37.40;;;;;;;;;;5052980;28;20027;-64
2022/02/26 08:06:03;;;;;;;34.92;22.55;;;;;;;;;;5050482;28;20033;-63
2022/02/26 08:08:29;;;;;;;24.85;19.17;;;;;;;;;;5050272;28;20494;-63
2022/02/26 08:10:55;;;;;;;17.67;11.68;;;;;;;;;;5050667;28;20075;-63
2022/02/26 08:13:21;;;;;;;13.98;10.50;;;;;;;;;;5050133;28;20052;-63
2022/02/26 08:15:48;;;;;;;18.45;13.18;;;;;;;;;;5050306;28;20025;-64
2022/02/26 08:18:15;;;;;;;45.08;29.55;;;;;;;;;;5050575;28;20021;-63
2022/02/26 08:20:41;;;;;;;59.80;40.20;;;;;;;;;;5056857;28;20033;-64
2022/02/26 08:23:07;;;;;;;128.88;93.05;;;;;;;;;;5057029;28;20032;-64
2022/02/26 08:25:34;;;;;;;16.67;13.48;;;;;;;;;;5060947;28;20035;-64
2022/02/26 08:28:00;;;;;;;12.65;9.95;;;;;;;;;;5065318;28;20076;-64
2022/02/26 08:30:26;;;;;;;20.38;18.08;;;;;;;;;;5057605;28;20078;-63
2022/02/26 08:32:52;;;;;;;39.22;35.13;;;;;;;;;;5058902;28;20056;-63
2022/02/26 08:35:19;;;;;;;17.83;15.80;;;;;;;;;;5069927;28;20115;-64
2022/02/26 08:37:46;;;;;;;14.57;12.98;;;;;;;;;;5070371;28;20432;-63
2022/02/26 08:40:13;;;;;;;10.45;7.63;;;;;;;;;;5070010;28;20044;-63
2022/02/26 08:42:39;;;;;;;13.55;10.85;;;;;;;;;;5069730;28;20109;-63
2022/02/26 08:45:06;;;;;;;17.08;13.00;;;;;;;;;;5070055;28;20090;-65
2022/02/26 08:47:33;;;;;;;12.15;10.45;;;;;;;;;;5070025;28;20560;-64
2022/02/26 08:49:59;;;;;;;11.40;9.68;;;;;;;;;;5069661;28;20078;-64
2022/02/26 08:52:26;;;;;;;11.32;9.70;;;;;;;;;;5070255;28;20081;-63
2022/02/26 08:54:52;;;;;;;15.02;11.93;;;;;;;;;;5070059;28;20442;-63
2022/02/26 08:57:18;;;;;;;10.52;9.38;;;;;;;;;;5069650;28;20047;-64
2022/02/26 08:59:44;;;;;;;31.10;21.05;;;;;;;;;;5070026;28;20467;-64
2022/02/26 09:02:10;;;;;;;13.60;9.05;;;;;;;;;;5069727;28;20038;-64
2022/02/26 09:04:37;;;;;;;10.27;7.18;;;;;;;;;;5069759;28;20028;-64
2022/02/26 09:07:03;;;;;;;40.40;20.67;;;;;;;;;;5069814;28;20025;-63
2022/02/26 09:09:29;;;;;;;15.95;9.00;;;;;;;;;;5068359;28;20044;-63
2022/02/26 09:11:56;;;;;;;9.70;6.82;;;;;;;;;;5068944;28;20474;-63
2022/02/26 09:14:22;;;;;;;38.58;21.63;;;;;;;;;;5069903;28;20032;-65
2022/02/26 09:16:48;;;;;;;9.75;7.97;;;;;;;;;;5069513;28;20024;-63
2022/02/26 09:19:14;;;;;;;8.80;5.78;;;;;;;;;;5069798;28;20034;-64
2022/02/26 09:21:40;;;;;;;10.77;6.82;;;;;;;;;;5069385;28;20025;-63
2022/02/26 09:24:07;;;;;;;8.85;6.72;;;;;;;;;;5069507;28;20032;-64
2022/02/26 09:26:33;;;;;;;10.88;9.23;;;;;;;;;;5069489;28;20021;-63
2022/02/26 09:28:59;;;;;;;11.95;8.15;;;;;;;;;;5069195;28;20153;-64
2022/02/26 09:31:25;;;;;;;13.10;10.18;;;;;;;;;;5069772;28;20017;-63
2022/02/26 09:33:51;;;;;;;9.05;6.13;;;;;;;;;;5069403;28;20046;-64
2022/02/26 09:36:17;;;;;;;9.43;6.90;;;;;;;;;;5069461;28;20031;-65
2022/02/26 09:38:44;;;;;;;10.95;7.78;;;;;;;;;;5071274;28;20039;-64
2022/02/26 09:41:11;;;;;;;8.40;6.55;;;;;;;;;;5072721;28;20372;-63
2022/02/26 09:43:37;;;;;;;10.60;7.53;;;;;;;;;;5072809;28;20032;-64
2022/02/26 09:46:05;;;;;;;9.43;6.70;;;;;;;;;;5073446;28;20024;-63
2022/02/26 09:48:31;;;;;;;11.55;7.35;;;;;;;;;;5072574;28;20024;-63
2022/02/26 09:50:57;;;;;;;10.43;7.00;;;;;;;;;;5072601;28;20024;-64
2022/02/26 09:53:24;;;;;;;10.80;7.05;;;;;;;;;;5073118;28;20035;-63
2022/02/26 09:55:54;;;;;;;8.68;5.88;;;;;;;;;;5071328;28;20036;-64
2022/02/26 09:58:20;;;;;;;9.40;7.00;;;205.20;2252.80;;;;;;5072465;28;20094;-63
2022/02/26 10:00:47;;;;;;;9.55;7.70;;;;;;;;;;5072958;28;20485;-63
2022/02/26 10:03:32;;;;;;;9.70;7.38;;;;;;;;;;5072884;28;20017;-64
2022/02/26 10:06:14;;;;;;;10.38;6.97;;;;;;;;;;5072748;28;20031;-64
2022/02/26 10:08:40;;;;;;;15.97;10.67;;;;;;;;;;5072471;28;20041;-62
2022/02/26 10:11:07;;;;;;;8.45;6.75;;;;;;;;;;5072352;28;20269;-65
2022/02/26 10:13:46;;;;;;;9.68;7.18;;;;;;;;;;5072516;28;20422;-64
2022/02/26 10:16:12;;;;;;;10.05;7.93;;;;;;;;;;5072311;28;20035;-64
2022/02/26 10:18:38;;;;;;;12.48;9.50;;;;;;;;;;5072202;28;20028;-64
2022/02/26 10:21:05;;;;;;;10.68;7.68;;;;;;;;;;5072642;28;20024;-64
2022/02/26 10:23:31;;;;;;;12.65;7.47;;;;;;;;;;5072183;28;20056;-64
2022/02/26 10:26:07;;;;;;;9.90;7.38;;;;;;;;;;5071957;28;20021;-63
2022/02/26 10:28:33;;;;;;;10.48;6.97;;;;;;;;;;5071998;28;20082;-63
2022/02/26 10:31:02;;;;;;;15.38;9.82;;;;;;;;;;5072007;28;20536;-65
2022/02/26 10:33:29;;;;;;;9.88;6.65;;;;;;;;;;5072065;28;20432;-64
2022/02/26 10:35:55;;;;;;;12.48;10.30;;;;;;;;;;5072051;28;20025;-63
2022/02/26 10:38:27;;;;;;;10.57;7.60;;;;;;;;;;5072201;28;20024;-64
2022/02/26 10:40:57;;;;;;;9.07;6.68;;;;;;;;;;5071954;28;20107;-64
2022/02/26 10:43:41;;;;;;;9.38;7.18;;;;;;;;;;5071924;28;20032;-64
2022/02/26 10:46:13;;;;;;;10.77;8.52;;;;;;;;;;5071683;28;20028;-64
2022/02/26 10:48:40;;;;;;;13.25;9.98;;;;;;;;;;5071262;28;20036;-63
2022/02/26 10:51:06;;;;;;;11.50;8.75;;;;;;;;;;5071786;28;20454;-62
2022/02/26 10:53:39;;;;;;;14.13;12.35;;;;;;;;;;5071503;28;20036;-64
2022/02/26 10:56:05;;;;;;;15.65;12.85;;;;;;;;;;5071497;28;20032;-64
2022/02/26 10:58:31;;;;;;;12.60;8.30;;;;;;;;;;5071531;28;20032;-64
2022/02/26 11:01:01;;;;;;;9.32;7.53;;;;;;;;;;5071427;28;20036;-64
2022/02/26 11:03:27;;;;;;;13.70;10.75;;;;;;;;;;5071524;28;20175;-64
2022/02/26 11:05:53;;;;;;;10.45;8.95;;;;;;;;;;5071476;28;20036;-63
2022/02/26 11:08:20;;;;;;;9.82;7.82;;;;;;;;;;5071283;28;20028;-64
2022/02/26 11:10:46;;;;;;;10.13;7.72;;;;;;;;;;5071379;28;20095;-64
2022/02/26 11:13:13;;;;;;;11.98;6.35;;;;;;;;;;5071354;28;20119;-63
2022/02/26 11:15:40;;;;;;;11.07;6.78;;;;;;;;;;5071199;28;20033;-63
2022/02/26 11:18:07;;;;;;;11.48;8.88;;;;;;;;;;5070508;28;20519;-64
2022/02/26 11:20:34;;;;;;;10.43;8.50;;;;;;;;;;5071435;28;20031;-63
2022/02/26 11:23:00;;;;;;;9.30;6.85;;;;;;;;;;5071049;28;20025;-63
2022/02/26 11:25:27;;;;;;;9.43;6.82;;;;;;;;;;5070999;28;20020;-63
2022/02/26 11:27:53;;;;;;;12.75;9.43;;;;;;;;;;5070838;28;20429;-63
2022/02/26 11:30:25;;;;;;;9.68;8.55;;;;;;;;;;5070772;28;20044;-63
2022/02/26 11:32:51;;;;;;;26.98;15.70;;;;;;;;;;5071158;28;20028;-63
2022/02/26 11:35:19;;;;;;;83.47;43.67;;;;;;;;;;5070963;28;20016;-63
2022/02/26 11:37:53;;;;;;;106.13;51.28;;;;;;;;;;5071094;28;20020;-63
2022/02/26 11:40:19;;;;;;;50.05;27.45;;;;;;;;;;5070903;28;20047;-65
2022/02/26 11:42:46;;;;;;;18.13;13.48;;;;;;;;;;5071059;28;20025;-63
2022/02/26 11:45:17;;;;;;;43.15;24.20;;;;;;;;;;5071069;28;20028;-68
2022/02/26 11:47:50;;;;;;;18.08;13.68;;;;;;;;;;5071128;28;20525;-66
2022/02/26 11:50:21;;;;;;;116.00;66.45;;;;;;;;;;5070695;28;20040;-64
2022/02/26 11:52:49;;;;;;;16.27;11.50;;;;;;;;;;5070523;28;20116;-63
2022/02/26 11:55:42;;;;;;;319.83;147.23;;;;;;;;;;5070770;28;20025;-62
2022/02/26 11:58:14;;;;;;;21.65;14.27;;;;;;;;;;5070067;28;20150;-62
2022/02/26 12:00:42;;;;;;;101.78;55.10;;;;;;;;;;5069696;28;20021;-62
2022/02/26 12:03:35;;;;;;;60.42;36.25;;;;;;;;;;5070310;28;20168;-62
2022/02/26 12:06:11;;;;;;;28.65;20.42;;;;;;;;;;5067997;28;20393;-62
2022/02/26 12:08:42;;;;;;;15.50;9.68;;;;;;;;;;5068130;28;20032;-63
2022/02/26 12:11:13;;;;;;;12.05;9.95;;;;;;;;;;5067976;28;20039;-62
2022/02/26 12:13:40;;;;;;;20.27;14.88;;;;;;;;;;5067988;28;20032;-63
2022/02/26 12:16:09;;;;;;;11.88;9.32;;;;;;;;;;5068300;28;20856;-62
2022/02/26 12:18:42;;;;;;;10.38;9.23;;;;;;;;;;5068240;28;20118;-63
2022/02/26 12:21:09;;;;;;;12.77;11.15;;;;;;;;;;5067974;28;20028;-62
2022/02/26 12:23:37;;;;;;;11.30;9.73;;;;;;;;;;5068153;28;20064;-62
2022/02/26 12:26:03;;;;;;;11.82;10.18;;;;;;;;;;5068148;28;20035;-62
2022/02/26 12:28:29;;;;;;;15.35;13.32;;;;;;;;;;5067622;28;20132;-63
2022/02/26 12:31:04;;;;;;;17.13;14.15;;;;;;;;;;5068172;28;20132;-62
2022/02/26 12:33:46;;;;;;;15.32;12.43;;;;;;;;;;5051519;28;20055;-62
2022/02/26 12:36:17;;;;;;;13.90;10.93;;;;;;;;;;5067982;28;20041;-63
2022/02/26 12:38:50;;;;;;;29.25;24.60;;;;;;;;;;5067935;28;20086;-63
2022/02/26 12:41:35;;;;;;;15.35;13.10;;;;;;;;;;5067877;28;20032;-64
2022/02/26 12:44:02;;;;;;;18.15;14.85;;;;;;;;;;5050180;28;20025;-64
2022/02/26 12:46:30;;;;;;;22.02;16.30;;;;;;;;;;5049985;28;20033;-63
2022/02/26 12:49:02;;;;;;;20.67;16.05;;;;;;;;;;5049889;28;20033;-63
2022/02/26 12:51:31;;;;;;;14.93;12.37;;;;;;;;;;5049703;28;20037;-64
2022/02/26 12:53:58;;;;;;;14.32;11.52;;;;;;;;;;5049806;28;20037;-64
2022/02/26 12:56:34;;;;;;;12.88;11.30;;;;;;;;;;5049770;28;20087;-64
2022/02/26 12:59:09;;;;;;;12.35;9.80;;;;;;;;;;5049842;28;20091;-65
2022/02/26 13:01:39;;;;;;;13.68;11.70;;;;;;;;;;5049934;28;20490;-63
2022/02/26 13:04:05;;;;;;;13.18;10.75;;;;;;;;;;5049784;28;20025;-63
2022/02/26 13:06:32;;;;;;;13.30;10.07;;;;;;;;;;5049861;28;20064;-63
2022/02/26 13:08:58;;;;;;;12.98;9.77;;;;;;;;;;5049527;28;20037;-63
2022/02/26 13:11:24;;;;;;;11.20;9.02;;;;;;;;;;5049843;28;20029;-63
2022/02/26 13:14:03;;;;;;;11.43;9.38;;;;;;;;;;5053441;28;20029;-64
2022/02/26 13:16:29;;;;;;;12.30;10.65;;;;;;;;;;5053621;28;20131;-63
2022/02/26 13:18:57;;;;;;;14.18;10.10;;;;;;;;;;5053671;28;20445;-62
2022/02/26 13:21:23;;;;;;;19.33;17.48;;;;;;;;;;5053848;28;20074;-63
2022/02/26 13:23:52;;;;;;;13.40;10.35;;;;;;;;;;5053720;28;20082;-63
2022/02/26 13:26:27;;;;;;;13.50;10.48;;;;;;;;;;5053553;28;20071;-63
2022/02/26 13:28:54;;;;;;;13.00;9.45;;;;;;;;;;5053051;28;20507;-63
2022/02/26 13:31:21;;;;;;;14.70;10.98;;;;;;;;;;5053311;28;20056;-65
2022/02/26 13:33:47;;;;;;;16.63;12.02;;;;;;;;;;5053416;28;20028;-64
2022/02/26 13:36:13;;;;;;;23.27;17.67;;;;;;;;;;5053195;28;20529;-62
2022/02/26 13:38:39;;;;;;;23.10;16.73;;;;;;;;;;5053204;28;20508;-62
2022/02/26 13:41:12;;;;;;;24.92;16.52;;;;;;;;;;5053318;28;20497;-62
2022/02/26 13:43:38;;;;;;;32.30;21.83;;;;;;;;;;5052839;28;20033;-62
2022/02/26 13:46:17;;;;;;;60.00;44.47;;;;;;;;;;5053045;28;20021;-62
2022/02/26 13:48:44;;;;;;;55.40;40.70;;;;;;;;;;5052988;28;20104;-62
2022/02/26 13:51:10;;;;;;;36.20;26.08;;;;;;;;;;5052831;28;20029;-63
2022/02/26 13:53:37;;;;;;;55.40;36.65;;;;;;;;;;5052915;28;20448;-62
2022/02/26 13:56:03;;;;;;;37.67;26.63;;;;;;;;;;5052966;28;20029;-62
2022/02/26 13:58:31;;;;;;;37.38;27.55;;;;;;;;;;5052497;28;20036;-63
2022/02/26 14:01:04;;;;;;;38.20;25.50;;;;;;;;;;5052626;28;20039;-63
2022/02/26 14:03:30;;;;;;;43.85;31.05;;;;;;;;;;5052768;28;20039;-63
2022/02/26 14:05:56;;;;;;;35.28;25.23;;;;;;;;;;5052943;28;20025;-62
2022/02/26 14:08:22;;;;;;;24.38;18.45;;;;;;;;;;5052858;28;20623;-63
2022/02/26 14:10:50;;;;;;;34.35;22.52;;;;;;;;;;5052672;28;20384;-62
2022/02/26 14:13:18;;;;;;;39.53;27.65;;;;;;;;;;5052748;28;20521;-62
2022/02/26 14:15:45;;;;;;;37.65;26.40;;;;;;;;;;5052454;28;20036;-62
2022/02/26 14:18:11;;;;;;;35.35;22.88;;;;;;;;;;5052299;28;20025;-62
2022/02/26 14:20:37;;;;;;;34.63;24.67;;;;;;;;;;5052470;28;20021;-63
2022/02/26 14:23:08;;;;;;;32.25;24.08;;;;;;;;;;5052555;28;20079;-62